sensor_id;sensor_type;location;lat;lon;timestamp;noise_LAeq;noise_LA_min;noise_LA_max;noise_LA01;noise_LA95
64642;Laerm;59936;51.490;5.436;2023-10-08T00:05:48;38.91;36.09;43.16;;
64642;Laerm;59936;51.490;5.436;2023-10-08T00:08:18;38.38;35.65;43.70;;
64642;Laerm;59936;51.490;5.436;2023-10-08T00:10:47;40.28;36.14;52.91;;
64642;Laerm;59936;51.490;5.436;2023-10-08T00:13:16;38.43;34.99;49.76;;
64642;Laerm;59936;51.490;5.436;2023-10-08T00:15:45;38.88;35.63;43.32;;
64642;Laerm;59936;51.490;5.436;2023-10-08T00:18:13;38.56;35.40;47.04;;
64642;Laerm;59936;51.490;5.436;2023-10-08T00:20:42;39.01;34.36;49.51;;
64642;Laerm;59936;51.490;5.436;2023-10-08T00:23:10;40.74;34.62;55.35;;
64642;Laerm;59936;51.490;5.436;2023-10-08T00:25:39;39.59;35.97;48.31;;
64642;Laerm;59936;51.490;5.436;2023-10-08T00:28:08;39.51;35.84;49.68;;
64642;Laerm;59936;51.490;5.436;2023-10-08T00:30:40;38.99;33.26;51.74;;
64642;Laerm;59936;51.490;5.436;2023-10-08T00:33:09;37.71;35.14;41.06;;
64642;Laerm;59936;51.490;5.436;2023-10-08T00:35:38;38.93;35.20;51.38;;
64642;Laerm;59936;51.490;5.436;2023-10-08T00:38:11;37.80;34.28;45.94;;
64642;Laerm;59936;51.490;5.436;2023-10-08T00:40:40;37.09;33.96;42.72;;
64642;Laerm;59936;51.490;5.436;2023-10-08T00:43:09;37.80;34.97;44.02;;
64642;Laerm;59936;51.490;5.436;2023-10-08T00:45:38;37.21;34.68;40.14;;
64642;Laerm;59936;51.490;5.436;2023-10-08T00:48:06;38.98;34.74;53.17;;
64642;Laerm;59936;51.490;5.436;2023-10-08T00:50:35;37.71;34.08;47.87;;
64642;Laerm;59936;51.490;5.436;2023-10-08T00:53:04;38.44;34.02;47.73;;
64642;Laerm;59936;51.490;5.436;2023-10-08T00:55:33;38.52;34.67;49.90;;
64642;Laerm;59936;51.490;5.436;2023-10-08T00:58:02;40.27;35.20;52.65;;
64642;Laerm;59936;51.490;5.436;2023-10-08T01:00:31;39.68;35.56;51.75;;
64642;Laerm;59936;51.490;5.436;2023-10-08T01:03:00;40.74;35.48;52.37;;
64642;Laerm;59936;51.490;5.436;2023-10-08T01:05:29;40.51;34.97;55.97;;
64642;Laerm;59936;51.490;5.436;2023-10-08T01:07:58;38.10;34.31;51.41;;
64642;Laerm;59936;51.490;5.436;2023-10-08T01:10:26;37.64;34.89;42.87;;
64642;Laerm;59936;51.490;5.436;2023-10-08T01:12:55;38.35;35.25;45.96;;
64642;Laerm;59936;51.490;5.436;2023-10-08T01:15:23;37.11;34.49;43.51;;
64642;Laerm;59936;51.490;5.436;2023-10-08T01:17:52;35.63;32.60;40.68;;
64642;Laerm;59936;51.490;5.436;2023-10-08T01:20:20;36.95;33.75;47.71;;
64642;Laerm;59936;51.490;5.436;2023-10-08T01:22:49;35.96;33.46;40.60;;
64642;Laerm;59936;51.490;5.436;2023-10-08T01:25:17;36.79;33.27;42.42;;
64642;Laerm;59936;51.490;5.436;2023-10-08T01:27:46;36.70;33.93;43.60;;
64642;Laerm;59936;51.490;5.436;2023-10-08T01:30:15;36.06;33.38;39.57;;
64642;Laerm;59936;51.490;5.436;2023-10-08T01:32:44;35.38;32.59;41.17;;
64642;Laerm;59936;51.490;5.436;2023-10-08T01:35:13;36.18;33.13;41.65;;
64642;Laerm;59936;51.490;5.436;2023-10-08T01:37:41;36.22;32.98;44.55;;
64642;Laerm;59936;51.490;5.436;2023-10-08T01:40:10;36.88;34.00;42.43;;
64642;Laerm;59936;51.490;5.436;2023-10-08T01:42:39;36.05;33.40;41.42;;
64642;Laerm;59936;51.490;5.436;2023-10-08T01:45:08;37.37;33.11;42.58;;
64642;Laerm;59936;51.490;5.436;2023-10-08T01:47:37;36.21;32.88;43.17;;
64642;Laerm;59936;51.490;5.436;2023-10-08T01:50:06;36.34;33.58;41.79;;
64642;Laerm;59936;51.490;5.436;2023-10-08T01:52:35;36.88;32.96;46.82;;
64642;Laerm;59936;51.490;5.436;2023-10-08T01:55:04;34.99;32.50;40.25;;
64642;Laerm;59936;51.490;5.436;2023-10-08T01:57:32;36.77;34.58;42.29;;
64642;Laerm;59936;51.490;5.436;2023-10-08T02:00:01;37.73;34.30;48.40;;
64642;Laerm;59936;51.490;5.436;2023-10-08T02:02:29;39.32;33.74;54.19;;
64642;Laerm;59936;51.490;5.436;2023-10-08T02:04:58;38.80;34.37;52.76;;
64642;Laerm;59936;51.490;5.436;2023-10-08T02:07:27;37.37;33.64;46.41;;
64642;Laerm;59936;51.490;5.436;2023-10-08T02:09:56;38.28;33.19;48.61;;
64642;Laerm;59936;51.490;5.436;2023-10-08T02:12:24;36.94;34.10;42.38;;
64642;Laerm;59936;51.490;5.436;2023-10-08T02:14:53;35.65;33.05;39.65;;
64642;Laerm;59936;51.490;5.436;2023-10-08T02:17:21;37.06;34.29;40.93;;
64642;Laerm;59936;51.490;5.436;2023-10-08T02:19:50;37.89;34.57;42.94;;
64642;Laerm;59936;51.490;5.436;2023-10-08T02:22:18;37.56;33.63;43.37;;
64642;Laerm;59936;51.490;5.436;2023-10-08T02:24:47;37.21;34.55;42.03;;
64642;Laerm;59936;51.490;5.436;2023-10-08T02:27:16;37.77;35.06;43.62;;
64642;Laerm;59936;51.490;5.436;2023-10-08T02:29:45;38.02;35.13;44.15;;
64642;Laerm;59936;51.490;5.436;2023-10-08T02:32:13;37.73;35.12;43.06;;
64642;Laerm;59936;51.490;5.436;2023-10-08T02:34:42;38.56;36.41;45.34;;
64642;Laerm;59936;51.490;5.436;2023-10-08T02:37:10;36.76;33.62;41.67;;
64642;Laerm;59936;51.490;5.436;2023-10-08T02:39:39;37.98;35.20;43.90;;
64642;Laerm;59936;51.490;5.436;2023-10-08T02:42:07;37.41;34.70;42.32;;
64642;Laerm;59936;51.490;5.436;2023-10-08T02:44:37;36.76;33.12;41.07;;
64642;Laerm;59936;51.490;5.436;2023-10-08T02:47:05;37.05;34.47;42.09;;
64642;Laerm;59936;51.490;5.436;2023-10-08T02:49:34;38.53;35.50;42.71;;
64642;Laerm;59936;51.490;5.436;2023-10-08T02:52:02;39.30;35.82;46.60;;
64642;Laerm;59936;51.490;5.436;2023-10-08T02:54:31;38.82;35.68;42.57;;
64642;Laerm;59936;51.490;5.436;2023-10-08T02:56:59;38.61;35.01;42.69;;
64642;Laerm;59936;51.490;5.436;2023-10-08T02:59:32;38.10;34.18;47.38;;
64642;Laerm;59936;51.490;5.436;2023-10-08T03:02:00;37.32;34.22;42.42;;
64642;Laerm;59936;51.490;5.436;2023-10-08T03:04:29;38.89;35.70;43.29;;
64642;Laerm;59936;51.490;5.436;2023-10-08T03:06:57;37.53;34.71;40.70;;
64642;Laerm;59936;51.490;5.436;2023-10-08T03:09:26;37.78;34.67;42.03;;
64642;Laerm;59936;51.490;5.436;2023-10-08T03:11:55;38.46;36.05;46.62;;
64642;Laerm;59936;51.490;5.436;2023-10-08T03:14:24;37.35;34.45;41.19;;
64642;Laerm;59936;51.490;5.436;2023-10-08T03:16:54;37.17;33.58;42.17;;
64642;Laerm;59936;51.490;5.436;2023-10-08T03:19:23;36.78;33.77;42.11;;
64642;Laerm;59936;51.490;5.436;2023-10-08T03:21:51;36.91;34.53;41.17;;
64642;Laerm;59936;51.490;5.436;2023-10-08T03:24:20;38.01;35.26;42.63;;
64642;Laerm;59936;51.490;5.436;2023-10-08T03:26:48;38.37;35.71;42.16;;
64642;Laerm;59936;51.490;5.436;2023-10-08T03:29:17;38.63;35.62;44.92;;
64642;Laerm;59936;51.490;5.436;2023-10-08T03:31:45;40.10;36.34;51.29;;
64642;Laerm;59936;51.490;5.436;2023-10-08T03:34:16;39.45;34.75;47.60;;
64642;Laerm;59936;51.490;5.436;2023-10-08T03:36:47;40.00;35.43;48.98;;
64642;Laerm;59936;51.490;5.436;2023-10-08T03:39:17;38.31;34.67;45.00;;
64642;Laerm;59936;51.490;5.436;2023-10-08T03:41:46;39.40;36.98;44.16;;
64642;Laerm;59936;51.490;5.436;2023-10-08T03:44:15;37.62;34.89;42.68;;
64642;Laerm;59936;51.490;5.436;2023-10-08T03:46:43;39.40;35.97;45.19;;
64642;Laerm;59936;51.490;5.436;2023-10-08T03:49:12;38.68;35.27;42.63;;
64642;Laerm;59936;51.490;5.436;2023-10-08T03:51:44;38.27;35.15;43.79;;
64642;Laerm;59936;51.490;5.436;2023-10-08T03:54:13;38.29;35.55;41.39;;
64642;Laerm;59936;51.490;5.436;2023-10-08T03:56:46;38.05;34.38;41.90;;
64642;Laerm;59936;51.490;5.436;2023-10-08T03:59:15;37.55;34.67;41.07;;
64642;Laerm;59936;51.490;5.436;2023-10-08T04:01:44;36.89;33.71;42.62;;
64642;Laerm;59936;51.490;5.436;2023-10-08T04:04:13;37.36;33.95;41.73;;
64642;Laerm;59936;51.490;5.436;2023-10-08T04:06:42;37.84;34.93;42.88;;
64642;Laerm;59936;51.490;5.436;2023-10-08T04:09:10;37.62;34.84;42.46;;
64642;Laerm;59936;51.490;5.436;2023-10-08T04:11:39;37.48;34.67;43.28;;
64642;Laerm;59936;51.490;5.436;2023-10-08T04:14:08;37.96;35.41;42.10;;
64642;Laerm;59936;51.490;5.436;2023-10-08T04:16:36;36.97;34.05;42.11;;
64642;Laerm;59936;51.490;5.436;2023-10-08T04:19:05;37.24;34.72;40.12;;
64642;Laerm;59936;51.490;5.436;2023-10-08T04:21:34;37.54;35.22;40.41;;
64642;Laerm;59936;51.490;5.436;2023-10-08T04:24:03;37.52;35.08;41.96;;
64642;Laerm;59936;51.490;5.436;2023-10-08T04:26:32;38.63;35.72;42.82;;
64642;Laerm;59936;51.490;5.436;2023-10-08T04:29:02;38.52;36.08;42.46;;
64642;Laerm;59936;51.490;5.436;2023-10-08T04:31:31;38.99;36.03;42.47;;
64642;Laerm;59936;51.490;5.436;2023-10-08T04:34:00;39.13;35.38;48.72;;
64642;Laerm;59936;51.490;5.436;2023-10-08T04:36:28;41.74;36.82;50.72;;
64642;Laerm;59936;51.490;5.436;2023-10-08T04:38:57;39.62;37.30;45.28;;
64642;Laerm;59936;51.490;5.436;2023-10-08T04:41:25;39.28;37.06;42.85;;
64642;Laerm;59936;51.490;5.436;2023-10-08T04:43:54;40.56;37.27;44.69;;
64642;Laerm;59936;51.490;5.436;2023-10-08T04:46:23;41.04;37.52;48.21;;
64642;Laerm;59936;51.490;5.436;2023-10-08T04:48:51;39.42;36.61;43.91;;
64642;Laerm;59936;51.490;5.436;2023-10-08T04:51:20;39.07;35.89;41.93;;
64642;Laerm;59936;51.490;5.436;2023-10-08T04:53:48;39.34;36.62;45.75;;
64642;Laerm;59936;51.490;5.436;2023-10-08T04:56:17;41.55;37.03;56.61;;
64642;Laerm;59936;51.490;5.436;2023-10-08T04:58:47;40.23;37.33;46.88;;
64642;Laerm;59936;51.490;5.436;2023-10-08T05:01:18;40.82;37.46;52.37;;
64642;Laerm;59936;51.490;5.436;2023-10-08T05:03:52;41.38;37.13;52.99;;
64642;Laerm;59936;51.490;5.436;2023-10-08T05:06:23;42.00;37.57;53.32;;
64642;Laerm;59936;51.490;5.436;2023-10-08T05:08:52;42.05;37.23;53.91;;
64642;Laerm;59936;51.490;5.436;2023-10-08T05:11:20;41.27;37.04;53.50;;
64642;Laerm;59936;51.490;5.436;2023-10-08T05:13:49;41.46;38.31;46.27;;
64642;Laerm;59936;51.490;5.436;2023-10-08T05:16:17;44.08;37.71;61.51;;
64642;Laerm;59936;51.490;5.436;2023-10-08T05:18:46;41.64;37.95;49.53;;
64642;Laerm;59936;51.490;5.436;2023-10-08T05:21:15;40.66;37.34;46.87;;
64642;Laerm;59936;51.490;5.436;2023-10-08T05:23:43;41.04;38.39;51.31;;
64642;Laerm;59936;51.490;5.436;2023-10-08T05:26:12;42.21;37.21;53.63;;
64642;Laerm;59936;51.490;5.436;2023-10-08T05:28:40;45.00;37.10;67.96;;
64642;Laerm;59936;51.490;5.436;2023-10-08T05:31:09;41.29;37.31;49.11;;
64642;Laerm;59936;51.490;5.436;2023-10-08T05:33:38;43.19;38.49;62.73;;
64642;Laerm;59936;51.490;5.436;2023-10-08T05:36:06;41.96;38.52;55.07;;
64642;Laerm;59936;51.490;5.436;2023-10-08T05:38:35;45.20;38.79;60.44;;
64642;Laerm;59936;51.490;5.436;2023-10-08T05:41:04;42.84;38.77;60.28;;
64642;Laerm;59936;51.490;5.436;2023-10-08T05:43:35;41.91;38.72;60.12;;
64642;Laerm;59936;51.490;5.436;2023-10-08T05:46:15;41.77;38.71;58.18;;
64642;Laerm;59936;51.490;5.436;2023-10-08T05:48:44;43.55;38.93;67.66;;
64642;Laerm;59936;51.490;5.436;2023-10-08T05:51:12;46.35;40.45;59.96;;
64642;Laerm;59936;51.490;5.436;2023-10-08T05:53:43;55.67;39.98;75.35;;
64642;Laerm;59936;51.490;5.436;2023-10-08T05:56:12;45.28;39.60;60.91;;
64642;Laerm;59936;51.490;5.436;2023-10-08T05:58:40;44.45;39.41;61.07;;
64642;Laerm;59936;51.490;5.436;2023-10-08T06:01:09;44.22;39.43;59.46;;
64642;Laerm;59936;51.490;5.436;2023-10-08T06:03:37;43.76;40.58;51.95;;
64642;Laerm;59936;51.490;5.436;2023-10-08T06:06:08;46.32;39.66;67.28;;
64642;Laerm;59936;51.490;5.436;2023-10-08T06:08:41;43.05;40.04;51.61;;
64642;Laerm;59936;51.490;5.436;2023-10-08T06:11:10;43.09;40.62;49.68;;
64642;Laerm;59936;51.490;5.436;2023-10-08T06:13:38;43.65;39.58;56.78;;
64642;Laerm;59936;51.490;5.436;2023-10-08T06:16:07;45.33;40.80;58.83;;
64642;Laerm;59936;51.490;5.436;2023-10-08T06:18:35;47.82;41.26;64.81;;
64642;Laerm;59936;51.490;5.436;2023-10-08T06:21:06;53.69;40.89;66.18;;
64642;Laerm;59936;51.490;5.436;2023-10-08T06:23:39;52.52;42.03;65.34;;
64642;Laerm;59936;51.490;5.436;2023-10-08T06:26:08;43.80;40.29;65.09;;
64642;Laerm;59936;51.490;5.436;2023-10-08T06:28:38;53.56;39.61;68.50;;
64642;Laerm;59936;51.490;5.436;2023-10-08T06:31:08;48.66;41.25;63.89;;
64642;Laerm;59936;51.490;5.436;2023-10-08T06:33:38;50.77;40.15;63.97;;
64642;Laerm;59936;51.490;5.436;2023-10-08T06:36:07;44.28;39.61;55.38;;
64642;Laerm;59936;51.490;5.436;2023-10-08T06:38:37;47.82;40.28;65.43;;
64642;Laerm;59936;51.490;5.436;2023-10-08T06:41:08;45.17;40.42;59.77;;
64642;Laerm;59936;51.490;5.436;2023-10-08T06:43:44;54.69;41.66;75.19;;
64642;Laerm;59936;51.490;5.436;2023-10-08T06:46:14;50.68;41.03;70.69;;
64642;Laerm;59936;51.490;5.436;2023-10-08T06:48:42;43.48;40.15;52.69;;
64642;Laerm;59936;51.490;5.436;2023-10-08T06:51:12;43.03;39.85;49.01;;
64642;Laerm;59936;51.490;5.436;2023-10-08T06:53:44;44.91;41.47;54.28;;
64642;Laerm;59936;51.490;5.436;2023-10-08T06:56:14;51.25;41.01;64.22;;
64642;Laerm;59936;51.490;5.436;2023-10-08T06:58:43;44.17;40.63;54.78;;
64642;Laerm;59936;51.490;5.436;2023-10-08T07:01:12;44.03;41.18;54.80;;
64642;Laerm;59936;51.490;5.436;2023-10-08T07:03:40;43.10;40.48;51.24;;
64642;Laerm;59936;51.490;5.436;2023-10-08T07:06:09;52.25;41.49;63.79;;
64642;Laerm;59936;51.490;5.436;2023-10-08T07:08:37;50.91;41.26;62.86;;
64642;Laerm;59936;51.490;5.436;2023-10-08T07:11:06;52.45;41.52;62.81;;
64642;Laerm;59936;51.490;5.436;2023-10-08T07:13:35;51.83;40.51;64.31;;
64642;Laerm;59936;51.490;5.436;2023-10-08T07:16:03;44.66;41.12;55.94;;
64642;Laerm;59936;51.490;5.436;2023-10-08T07:18:32;44.38;40.61;57.54;;
64642;Laerm;59936;51.490;5.436;2023-10-08T07:21:02;44.83;41.34;51.25;;
64642;Laerm;59936;51.490;5.436;2023-10-08T07:23:31;51.95;41.68;62.74;;
64642;Laerm;59936;51.490;5.436;2023-10-08T07:26:03;43.97;38.90;58.60;;
64642;Laerm;59936;51.490;5.436;2023-10-08T07:28:32;47.14;39.20;62.64;;
64642;Laerm;59936;51.490;5.436;2023-10-08T07:31:01;44.25;38.31;63.54;;
64642;Laerm;59936;51.490;5.436;2023-10-08T07:33:29;50.99;39.23;64.46;;
64642;Laerm;59936;51.490;5.436;2023-10-08T07:35:58;52.09;39.08;64.28;;
64642;Laerm;59936;51.490;5.436;2023-10-08T07:38:26;43.28;38.86;53.13;;
64642;Laerm;59936;51.490;5.436;2023-10-08T07:40:56;44.09;38.50;57.44;;
64642;Laerm;59936;51.490;5.436;2023-10-08T07:43:24;43.33;38.70;60.91;;
64642;Laerm;59936;51.490;5.436;2023-10-08T07:45:53;47.69;38.55;67.23;;
64642;Laerm;59936;51.490;5.436;2023-10-08T07:48:21;42.09;38.10;57.01;;
64642;Laerm;59936;51.490;5.436;2023-10-08T07:50:50;42.86;39.00;52.50;;
64642;Laerm;59936;51.490;5.436;2023-10-08T07:53:19;42.73;38.91;57.30;;
64642;Laerm;59936;51.490;5.436;2023-10-08T07:55:47;43.00;38.96;53.53;;
64642;Laerm;59936;51.490;5.436;2023-10-08T07:58:16;43.37;38.63;53.76;;
64642;Laerm;59936;51.490;5.436;2023-10-08T08:00:45;40.78;37.37;49.61;;
64642;Laerm;59936;51.490;5.436;2023-10-08T08:03:14;41.43;37.10;65.87;;
64642;Laerm;59936;51.490;5.436;2023-10-08T08:05:42;42.74;37.49;58.95;;
64642;Laerm;59936;51.490;5.436;2023-10-08T08:08:11;43.87;37.28;62.89;;
64642;Laerm;59936;51.490;5.436;2023-10-08T08:10:40;52.78;36.97;68.14;;
64642;Laerm;59936;51.490;5.436;2023-10-08T08:13:08;49.74;37.40;61.45;;
64642;Laerm;59936;51.490;5.436;2023-10-08T08:15:37;47.96;37.94;69.52;;
64642;Laerm;59936;51.490;5.436;2023-10-08T08:18:05;51.82;38.27;64.94;;
64642;Laerm;59936;51.490;5.436;2023-10-08T08:20:37;40.23;37.14;50.79;;
64642;Laerm;59936;51.490;5.436;2023-10-08T08:23:06;39.82;37.00;51.80;;
64642;Laerm;59936;51.490;5.436;2023-10-08T08:25:42;38.84;35.58;48.57;;
64642;Laerm;59936;51.490;5.436;2023-10-08T08:28:11;43.32;36.67;58.44;;
64642;Laerm;59936;51.490;5.436;2023-10-08T08:30:40;41.97;38.34;54.45;;
64642;Laerm;59936;51.490;5.436;2023-10-08T08:33:08;43.16;38.78;52.43;;
64642;Laerm;59936;51.490;5.436;2023-10-08T08:35:37;43.72;40.90;47.28;;
64642;Laerm;59936;51.490;5.436;2023-10-08T08:38:06;50.74;41.39;65.22;;
64642;Laerm;59936;51.490;5.436;2023-10-08T08:40:34;44.49;40.70;51.52;;
64642;Laerm;59936;51.490;5.436;2023-10-08T08:43:05;45.18;39.40;59.53;;
64642;Laerm;59936;51.490;5.436;2023-10-08T08:45:35;42.71;37.01;52.19;;
64642;Laerm;59936;51.490;5.436;2023-10-08T08:48:05;42.97;36.94;61.69;;
64642;Laerm;59936;51.490;5.436;2023-10-08T08:50:36;41.51;38.16;49.82;;
64642;Laerm;59936;51.490;5.436;2023-10-08T08:53:05;42.29;39.03;48.62;;
64642;Laerm;59936;51.490;5.436;2023-10-08T08:55:34;42.15;37.31;54.46;;
64642;Laerm;59936;51.490;5.436;2023-10-08T08:58:03;40.97;36.20;54.65;;
64642;Laerm;59936;51.490;5.436;2023-10-08T09:00:31;40.21;35.32;65.04;;
64642;Laerm;59936;51.490;5.436;2023-10-08T09:03:00;43.49;35.24;65.80;;
64642;Laerm;59936;51.490;5.436;2023-10-08T09:05:29;42.30;36.59;52.30;;
64642;Laerm;59936;51.490;5.436;2023-10-08T09:08:02;38.17;35.81;51.41;;
64642;Laerm;59936;51.490;5.436;2023-10-08T09:10:37;39.48;35.65;51.12;;
64642;Laerm;59936;51.490;5.436;2023-10-08T09:13:07;40.92;35.41;52.66;;
64642;Laerm;59936;51.490;5.436;2023-10-08T09:15:36;39.07;36.60;52.68;;
64642;Laerm;59936;51.490;5.436;2023-10-08T09:18:05;39.96;36.31;57.55;;
64642;Laerm;59936;51.490;5.436;2023-10-08T09:20:37;41.04;35.74;55.49;;
64642;Laerm;59936;51.490;5.436;2023-10-08T09:23:15;50.45;36.50;65.15;;
64642;Laerm;59936;51.490;5.436;2023-10-08T09:25:45;45.22;36.18;63.27;;
64642;Laerm;59936;51.490;5.436;2023-10-08T09:28:14;39.48;35.34;49.60;;
64642;Laerm;59936;51.490;5.436;2023-10-08T09:30:43;39.52;35.85;51.83;;
64642;Laerm;59936;51.490;5.436;2023-10-08T09:33:13;43.90;35.75;62.11;;
64642;Laerm;59936;51.490;5.436;2023-10-08T09:35:42;46.83;37.94;56.71;;
64642;Laerm;59936;51.490;5.436;2023-10-08T09:38:11;41.03;37.33;50.72;;
64642;Laerm;59936;51.490;5.436;2023-10-08T09:40:41;42.14;36.87;53.21;;
64642;Laerm;59936;51.490;5.436;2023-10-08T09:43:10;39.55;36.71;49.02;;
64642;Laerm;59936;51.490;5.436;2023-10-08T09:45:45;40.47;37.32;50.06;;
64642;Laerm;59936;51.490;5.436;2023-10-08T09:48:18;50.50;37.11;63.28;;
64642;Laerm;59936;51.490;5.436;2023-10-08T09:50:52;51.65;36.65;77.08;;
64642;Laerm;59936;51.490;5.436;2023-10-08T09:53:59;39.74;36.30;55.41;;
64642;Laerm;59936;51.490;5.436;2023-10-08T09:56:20;50.71;37.19;66.87;;
64642;Laerm;59936;51.490;5.436;2023-10-08T09:58:50;38.52;36.55;42.82;;
64642;Laerm;59936;51.490;5.436;2023-10-08T10:01:20;37.69;35.63;45.54;;
64642;Laerm;59936;51.490;5.436;2023-10-08T10:03:49;51.41;36.38;65.07;;
64642;Laerm;59936;51.490;5.436;2023-10-08T10:06:18;39.03;36.12;56.89;;
64642;Laerm;59936;51.490;5.436;2023-10-08T10:08:48;53.76;36.73;67.16;;
64642;Laerm;59936;51.490;5.436;2023-10-08T10:11:16;52.35;35.95;64.96;;
64642;Laerm;59936;51.490;5.436;2023-10-08T10:13:50;39.95;36.60;50.06;;
64642;Laerm;59936;51.490;5.436;2023-10-08T10:16:21;40.11;35.98;46.95;;
64642;Laerm;59936;51.490;5.436;2023-10-08T10:18:50;39.53;35.64;47.67;;
64642;Laerm;59936;51.490;5.436;2023-10-08T10:23:48;42.19;36.73;57.86;;
64642;Laerm;59936;51.490;5.436;2023-10-08T10:26:35;39.93;35.95;53.62;;
64642;Laerm;59936;51.490;5.436;2023-10-08T10:31:40;44.27;37.19;56.65;;
64642;Laerm;59936;51.490;5.436;2023-10-08T10:34:09;51.21;36.69;62.64;;
64642;Laerm;59936;51.490;5.436;2023-10-08T10:36:46;53.52;38.79;65.99;;
64642;Laerm;59936;51.490;5.436;2023-10-08T10:39:18;43.15;36.04;54.11;;
64642;Laerm;59936;51.490;5.436;2023-10-08T10:41:48;42.34;36.82;52.44;;
64642;Laerm;59936;51.490;5.436;2023-10-08T10:44:17;44.32;40.18;51.64;;
64642;Laerm;59936;51.490;5.436;2023-10-08T10:46:46;43.12;40.01;49.10;;
64642;Laerm;59936;51.490;5.436;2023-10-08T10:49:15;43.80;39.36;57.31;;
64642;Laerm;59936;51.490;5.436;2023-10-08T10:51:47;53.74;38.79;65.12;;
64642;Laerm;59936;51.490;5.436;2023-10-08T10:54:17;47.79;40.97;65.09;;
64642;Laerm;59936;51.490;5.436;2023-10-08T10:56:47;51.85;40.42;67.04;;
64642;Laerm;59936;51.490;5.436;2023-10-08T10:59:15;51.34;38.12;69.85;;
64642;Laerm;59936;51.490;5.436;2023-10-08T11:01:48;45.94;38.39;54.83;;
64642;Laerm;59936;51.490;5.436;2023-10-08T11:04:17;41.07;38.02;48.98;;
64642;Laerm;59936;51.490;5.436;2023-10-08T11:06:50;40.73;38.54;48.69;;
64642;Laerm;59936;51.490;5.436;2023-10-08T11:09:19;41.25;38.35;51.24;;
64642;Laerm;59936;51.490;5.436;2023-10-08T11:11:48;42.27;39.16;56.55;;
64642;Laerm;59936;51.490;5.436;2023-10-08T11:14:16;47.69;39.76;69.29;;
64642;Laerm;59936;51.490;5.436;2023-10-08T11:16:47;42.65;39.40;52.55;;
64642;Laerm;59936;51.490;5.436;2023-10-08T11:19:19;49.58;40.02;61.14;;
64642;Laerm;59936;51.490;5.436;2023-10-08T11:21:52;42.49;39.59;53.75;;
64642;Laerm;59936;51.490;5.436;2023-10-08T11:24:31;43.14;40.89;48.16;;
64642;Laerm;59936;51.490;5.436;2023-10-08T11:27:01;43.19;39.28;50.18;;
64642;Laerm;59936;51.490;5.436;2023-10-08T11:29:30;42.47;39.67;50.05;;
64642;Laerm;59936;51.490;5.436;2023-10-08T11:32:00;43.57;39.76;55.57;;
64642;Laerm;59936;51.490;5.436;2023-10-08T11:34:32;43.04;39.45;53.03;;
64642;Laerm;59936;51.490;5.436;2023-10-08T11:37:00;49.07;38.51;66.21;;
64642;Laerm;59936;51.490;5.436;2023-10-08T11:39:39;49.37;39.57;64.49;;
64642;Laerm;59936;51.490;5.436;2023-10-08T11:42:08;43.70;39.90;57.29;;
64642;Laerm;59936;51.490;5.436;2023-10-08T11:44:36;51.13;39.02;63.93;;
64642;Laerm;59936;51.490;5.436;2023-10-08T11:47:05;40.71;38.63;49.95;;
64642;Laerm;59936;51.490;5.436;2023-10-08T11:49:34;41.19;38.67;48.45;;
64642;Laerm;59936;51.490;5.436;2023-10-08T11:52:02;42.20;39.23;48.95;;
64642;Laerm;59936;51.490;5.436;2023-10-08T11:54:31;41.18;38.82;46.51;;
64642;Laerm;59936;51.490;5.436;2023-10-08T11:57:00;41.59;38.26;57.28;;
64642;Laerm;59936;51.490;5.436;2023-10-08T11:59:29;41.67;38.07;50.11;;
64642;Laerm;59936;51.490;5.436;2023-10-08T12:01:57;43.02;38.46;57.10;;
64642;Laerm;59936;51.490;5.436;2023-10-08T12:04:26;51.35;38.60;66.58;;
64642;Laerm;59936;51.490;5.436;2023-10-08T12:06:55;42.02;39.47;47.71;;
64642;Laerm;59936;51.490;5.436;2023-10-08T12:09:23;51.78;38.13;64.73;;
64642;Laerm;59936;51.490;5.436;2023-10-08T12:11:52;41.39;38.32;59.77;;
64642;Laerm;59936;51.490;5.436;2023-10-08T12:14:20;51.22;38.45;65.60;;
64642;Laerm;59936;51.490;5.436;2023-10-08T12:16:49;40.55;38.57;44.58;;
64642;Laerm;59936;51.490;5.436;2023-10-08T12:19:17;42.22;38.91;49.57;;
64642;Laerm;59936;51.490;5.436;2023-10-08T12:21:46;41.36;38.87;48.91;;
64642;Laerm;59936;51.490;5.436;2023-10-08T12:24:14;40.97;38.68;45.43;;
64642;Laerm;59936;51.490;5.436;2023-10-08T12:26:43;50.22;37.95;63.21;;
64642;Laerm;59936;51.490;5.436;2023-10-08T12:29:13;43.09;38.11;65.45;;
64642;Laerm;59936;51.490;5.436;2023-10-08T12:31:41;41.87;38.10;57.57;;
64642;Laerm;59936;51.490;5.436;2023-10-08T12:34:10;41.19;37.29;58.57;;
64642;Laerm;59936;51.490;5.436;2023-10-08T12:36:38;39.42;36.68;44.76;;
64642;Laerm;59936;51.490;5.436;2023-10-08T12:39:07;41.42;38.48;51.68;;
64642;Laerm;59936;51.490;5.436;2023-10-08T12:41:36;42.19;38.01;52.39;;
64642;Laerm;59936;51.490;5.436;2023-10-08T12:44:04;39.93;37.72;45.71;;
64642;Laerm;59936;51.490;5.436;2023-10-08T12:46:33;40.30;37.89;49.79;;
64642;Laerm;59936;51.490;5.436;2023-10-08T12:49:02;40.63;37.82;52.84;;
64642;Laerm;59936;51.490;5.436;2023-10-08T12:51:31;43.23;37.48;56.89;;
64642;Laerm;59936;51.490;5.436;2023-10-08T12:54:01;41.35;38.73;48.77;;
64642;Laerm;59936;51.490;5.436;2023-10-08T12:56:30;40.44;37.72;48.00;;
64642;Laerm;59936;51.490;5.436;2023-10-08T12:59:00;39.63;37.17;49.27;;
64642;Laerm;59936;51.490;5.436;2023-10-08T13:01:28;38.68;36.53;42.89;;
64642;Laerm;59936;51.490;5.436;2023-10-08T13:03:57;39.22;37.16;44.64;;
64642;Laerm;59936;51.490;5.436;2023-10-08T13:06:26;39.50;37.03;49.27;;
64642;Laerm;59936;51.490;5.436;2023-10-08T13:08:56;41.21;37.83;51.14;;
64642;Laerm;59936;51.490;5.436;2023-10-08T13:11:27;42.35;37.45;54.43;;
64642;Laerm;59936;51.490;5.436;2023-10-08T13:13:57;49.86;37.42;64.63;;
64642;Laerm;59936;51.490;5.436;2023-10-08T13:16:28;51.61;37.04;67.40;;
64642;Laerm;59936;51.490;5.436;2023-10-08T13:18:57;38.95;36.49;42.41;;
64642;Laerm;59936;51.490;5.436;2023-10-08T13:21:27;39.24;37.30;55.03;;
64642;Laerm;59936;51.490;5.436;2023-10-08T13:23:56;41.95;37.38;52.42;;
64642;Laerm;59936;51.490;5.436;2023-10-08T13:26:24;42.02;37.91;53.87;;
64642;Laerm;59936;51.490;5.436;2023-10-08T13:28:53;42.67;38.36;54.60;;
64642;Laerm;59936;51.490;5.436;2023-10-08T13:31:21;41.33;37.53;46.85;;
64642;Laerm;59936;51.490;5.436;2023-10-08T13:33:50;48.49;36.67;61.80;;
64642;Laerm;59936;51.490;5.436;2023-10-08T13:36:19;48.79;36.15;66.52;;
64642;Laerm;59936;51.490;5.436;2023-10-08T13:38:48;40.82;35.64;58.13;;
64642;Laerm;59936;51.490;5.436;2023-10-08T13:41:16;40.42;36.23;58.22;;
64642;Laerm;59936;51.490;5.436;2023-10-08T13:43:48;42.90;35.75;60.82;;
64642;Laerm;59936;51.490;5.436;2023-10-08T13:46:20;47.02;36.04;62.78;;
64642;Laerm;59936;51.490;5.436;2023-10-08T13:48:49;39.28;36.10;49.06;;
64642;Laerm;59936;51.490;5.436;2023-10-08T13:51:21;39.38;36.13;57.41;;
64642;Laerm;59936;51.490;5.436;2023-10-08T13:53:53;41.05;35.95;54.35;;
64642;Laerm;59936;51.490;5.436;2023-10-08T13:56:22;40.25;35.48;51.62;;
64642;Laerm;59936;51.490;5.436;2023-10-08T13:58:52;40.22;35.39;53.26;;
64642;Laerm;59936;51.490;5.436;2023-10-08T14:01:20;37.79;35.38;44.76;;
64642;Laerm;59936;51.490;5.436;2023-10-08T14:03:49;47.05;35.71;64.64;;
64642;Laerm;59936;51.490;5.436;2023-10-08T14:06:19;47.23;35.88;60.69;;